Terminal Aerodrome Forecast
Issued by NWS

Current Version | Previous Version | Text Only | Print | Product List | Glossary On
Versions: 1 2 3 4 5 6 7 8 9 10 11 12 13 14
000
FTUS46 KMTR 280500 CCA
TAFSNS
TAF COR
KSNS 280550Z 2806/2906 VRB03KT P6SM SKC
     FM280800 VRB03KT 6SM BR FEW004
     FM281000 VRB04KT 4SM BR SCT003
      TEMPO 2812/2816 1/2SM FG OVC002
     FM282100 26009KT P6SM SCT200=

USA.gov is the U.S. government's official web portal to all federal, state and local government web resources and services.